sensor_id;sensor_type;location;lat;lon;timestamp;P1;durP1;ratioP1;P2;durP2;ratioP2
60292;SDS011;52402;52.670;6.750;2024-03-08T00:02:03;0.70;;;0.70;;
60292;SDS011;52402;52.670;6.750;2024-03-08T00:04:29;0.70;;;0.70;;
60292;SDS011;52402;52.670;6.750;2024-03-08T00:06:54;0.70;;;0.70;;
60292;SDS011;52402;52.670;6.750;2024-03-08T00:09:20;0.70;;;0.70;;
60292;SDS011;52402;52.670;6.750;2024-03-08T00:11:46;0.70;;;0.70;;
60292;SDS011;52402;52.670;6.750;2024-03-08T00:14:14;0.70;;;0.70;;
60292;SDS011;52402;52.670;6.750;2024-03-08T00:16:39;0.63;;;0.63;;
60292;SDS011;52402;52.670;6.750;2024-03-08T00:19:08;0.70;;;0.70;;
60292;SDS011;52402;52.670;6.750;2024-03-08T00:21:34;0.68;;;0.68;;
60292;SDS011;52402;52.670;6.750;2024-03-08T00:24:00;0.73;;;0.73;;
60292;SDS011;52402;52.670;6.750;2024-03-08T00:26:26;0.65;;;0.65;;
60292;SDS011;52402;52.670;6.750;2024-03-08T00:28:52;0.77;;;0.77;;
60292;SDS011;52402;52.670;6.750;2024-03-08T00:31:18;0.70;;;0.70;;
60292;SDS011;52402;52.670;6.750;2024-03-08T00:33:45;0.70;;;0.70;;
60292;SDS011;52402;52.670;6.750;2024-03-08T00:36:10;0.60;;;0.60;;
60292;SDS011;52402;52.670;6.750;2024-03-08T00:38:36;0.70;;;0.70;;
60292;SDS011;52402;52.670;6.750;2024-03-08T00:41:02;0.60;;;0.60;;
60292;SDS011;52402;52.670;6.750;2024-03-08T00:43:27;0.70;;;0.70;;
60292;SDS011;52402;52.670;6.750;2024-03-08T00:45:55;0.70;;;0.70;;
60292;SDS011;52402;52.670;6.750;2024-03-08T00:48:21;0.60;;;0.60;;
60292;SDS011;52402;52.670;6.750;2024-03-08T00:50:46;0.70;;;0.70;;
60292;SDS011;52402;52.670;6.750;2024-03-08T00:53:12;0.70;;;0.70;;
60292;SDS011;52402;52.670;6.750;2024-03-08T00:55:38;0.52;;;0.52;;
60292;SDS011;52402;52.670;6.750;2024-03-08T00:58:04;0.70;;;0.70;;
60292;SDS011;52402;52.670;6.750;2024-03-08T01:00:30;0.70;;;0.70;;
60292;SDS011;52402;52.670;6.750;2024-03-08T01:02:55;0.60;;;0.60;;
60292;SDS011;52402;52.670;6.750;2024-03-08T01:05:21;0.60;;;0.60;;
60292;SDS011;52402;52.670;6.750;2024-03-08T01:07:49;0.60;;;0.60;;
60292;SDS011;52402;52.670;6.750;2024-03-08T01:10:15;0.60;;;0.60;;
60292;SDS011;52402;52.670;6.750;2024-03-08T01:12:41;0.70;;;0.70;;
60292;SDS011;52402;52.670;6.750;2024-03-08T01:15:08;0.57;;;0.57;;
60292;SDS011;52402;52.670;6.750;2024-03-08T01:17:35;0.68;;;0.68;;
60292;SDS011;52402;52.670;6.750;2024-03-08T01:20:01;0.70;;;0.70;;
60292;SDS011;52402;52.670;6.750;2024-03-08T01:22:27;0.70;;;0.70;;
60292;SDS011;52402;52.670;6.750;2024-03-08T01:24:54;0.77;;;0.77;;
60292;SDS011;52402;52.670;6.750;2024-03-08T01:27:20;0.70;;;0.70;;
60292;SDS011;52402;52.670;6.750;2024-03-08T01:29:46;0.60;;;0.60;;
60292;SDS011;52402;52.670;6.750;2024-03-08T01:32:12;0.70;;;0.70;;
60292;SDS011;52402;52.670;6.750;2024-03-08T01:34:37;0.60;;;0.60;;
60292;SDS011;52402;52.670;6.750;2024-03-08T01:37:03;0.60;;;0.60;;
60292;SDS011;52402;52.670;6.750;2024-03-08T01:39:28;0.70;;;0.70;;
60292;SDS011;52402;52.670;6.750;2024-03-08T01:41:54;0.60;;;0.60;;
60292;SDS011;52402;52.670;6.750;2024-03-08T01:44:20;0.65;;;0.65;;
60292;SDS011;52402;52.670;6.750;2024-03-08T01:46:46;0.65;;;0.65;;
60292;SDS011;52402;52.670;6.750;2024-03-08T01:49:14;0.60;;;0.60;;
60292;SDS011;52402;52.670;6.750;2024-03-08T01:51:44;0.70;;;0.70;;
60292;SDS011;52402;52.670;6.750;2024-03-08T01:54:10;0.60;;;0.60;;
60292;SDS011;52402;52.670;6.750;2024-03-08T01:56:37;0.70;;;0.70;;
60292;SDS011;52402;52.670;6.750;2024-03-08T01:59:04;0.73;;;0.73;;
60292;SDS011;52402;52.670;6.750;2024-03-08T02:01:32;0.70;;;0.70;;
60292;SDS011;52402;52.670;6.750;2024-03-08T02:03:58;0.70;;;0.70;;
60292;SDS011;52402;52.670;6.750;2024-03-08T02:06:24;0.65;;;0.65;;
60292;SDS011;52402;52.670;6.750;2024-03-08T02:08:50;0.60;;;0.60;;
60292;SDS011;52402;52.670;6.750;2024-03-08T02:11:16;0.73;;;0.73;;
60292;SDS011;52402;52.670;6.750;2024-03-08T02:13:42;0.60;;;0.60;;
60292;SDS011;52402;52.670;6.750;2024-03-08T02:16:08;0.55;;;0.55;;
60292;SDS011;52402;52.670;6.750;2024-03-08T02:18:34;0.80;;;0.80;;
60292;SDS011;52402;52.670;6.750;2024-03-08T02:21:00;0.68;;;0.68;;
60292;SDS011;52402;52.670;6.750;2024-03-08T02:23:30;0.70;;;0.70;;
60292;SDS011;52402;52.670;6.750;2024-03-08T02:25:56;0.68;;;0.68;;
60292;SDS011;52402;52.670;6.750;2024-03-08T02:28:22;0.60;;;0.60;;
60292;SDS011;52402;52.670;6.750;2024-03-08T02:30:50;0.70;;;0.70;;
60292;SDS011;52402;52.670;6.750;2024-03-08T02:33:16;0.60;;;0.60;;
60292;SDS011;52402;52.670;6.750;2024-03-08T02:35:46;0.60;;;0.60;;
60292;SDS011;52402;52.670;6.750;2024-03-08T02:38:17;0.60;;;0.60;;
60292;SDS011;52402;52.670;6.750;2024-03-08T02:40:47;0.50;;;0.50;;
60292;SDS011;52402;52.670;6.750;2024-03-08T02:43:14;0.60;;;0.60;;
60292;SDS011;52402;52.670;6.750;2024-03-08T02:45:40;0.60;;;0.60;;
60292;SDS011;52402;52.670;6.750;2024-03-08T02:48:13;0.80;;;0.80;;
60292;SDS011;52402;52.670;6.750;2024-03-08T02:53:07;0.60;;;0.60;;
60292;SDS011;52402;52.670;6.750;2024-03-08T02:55:34;0.50;;;0.50;;
60292;SDS011;52402;52.670;6.750;2024-03-08T02:58:01;0.60;;;0.60;;
60292;SDS011;52402;52.670;6.750;2024-03-08T03:00:28;0.52;;;0.52;;
60292;SDS011;52402;52.670;6.750;2024-03-08T03:02:56;0.60;;;0.60;;
60292;SDS011;52402;52.670;6.750;2024-03-08T03:05:25;0.70;;;0.70;;
60292;SDS011;52402;52.670;6.750;2024-03-08T03:07:50;0.60;;;0.60;;
60292;SDS011;52402;52.670;6.750;2024-03-08T03:10:16;0.50;;;0.50;;
60292;SDS011;52402;52.670;6.750;2024-03-08T03:12:43;0.70;;;0.70;;
60292;SDS011;52402;52.670;6.750;2024-03-08T03:15:10;0.52;;;0.52;;
60292;SDS011;52402;52.670;6.750;2024-03-08T03:17:36;0.60;;;0.60;;
60292;SDS011;52402;52.670;6.750;2024-03-08T03:20:04;0.60;;;0.60;;
60292;SDS011;52402;52.670;6.750;2024-03-08T03:22:34;0.70;;;0.70;;
60292;SDS011;52402;52.670;6.750;2024-03-08T03:25:02;0.70;;;0.70;;
60292;SDS011;52402;52.670;6.750;2024-03-08T03:27:29;0.60;;;0.60;;
60292;SDS011;52402;52.670;6.750;2024-03-08T03:29:55;0.55;;;0.55;;
60292;SDS011;52402;52.670;6.750;2024-03-08T03:32:22;0.70;;;0.70;;
60292;SDS011;52402;52.670;6.750;2024-03-08T03:34:48;0.65;;;0.65;;
60292;SDS011;52402;52.670;6.750;2024-03-08T03:37:18;0.60;;;0.60;;
60292;SDS011;52402;52.670;6.750;2024-03-08T03:39:44;0.60;;;0.60;;
60292;SDS011;52402;52.670;6.750;2024-03-08T03:42:17;0.50;;;0.50;;
60292;SDS011;52402;52.670;6.750;2024-03-08T03:44:46;0.57;;;0.57;;
60292;SDS011;52402;52.670;6.750;2024-03-08T03:47:13;0.60;;;0.60;;
60292;SDS011;52402;52.670;6.750;2024-03-08T03:49:40;0.60;;;0.60;;
60292;SDS011;52402;52.670;6.750;2024-03-08T03:52:06;0.60;;;0.60;;
60292;SDS011;52402;52.670;6.750;2024-03-08T03:54:32;0.73;;;0.73;;
60292;SDS011;52402;52.670;6.750;2024-03-08T03:56:58;0.60;;;0.60;;
60292;SDS011;52402;52.670;6.750;2024-03-08T03:59:26;0.60;;;0.60;;
60292;SDS011;52402;52.670;6.750;2024-03-08T04:01:52;0.60;;;0.60;;
60292;SDS011;52402;52.670;6.750;2024-03-08T04:04:19;0.50;;;0.50;;
60292;SDS011;52402;52.670;6.750;2024-03-08T04:06:45;0.63;;;0.63;;
60292;SDS011;52402;52.670;6.750;2024-03-08T04:09:11;0.70;;;0.70;;
60292;SDS011;52402;52.670;6.750;2024-03-08T04:11:37;0.60;;;0.60;;
60292;SDS011;52402;52.670;6.750;2024-03-08T04:14:03;0.50;;;0.50;;
60292;SDS011;52402;52.670;6.750;2024-03-08T04:16:30;0.60;;;0.60;;
60292;SDS011;52402;52.670;6.750;2024-03-08T04:18:56;0.57;;;0.57;;
60292;SDS011;52402;52.670;6.750;2024-03-08T04:21:23;0.57;;;0.57;;
60292;SDS011;52402;52.670;6.750;2024-03-08T04:23:49;0.60;;;0.60;;
60292;SDS011;52402;52.670;6.750;2024-03-08T04:26:14;0.60;;;0.60;;
60292;SDS011;52402;52.670;6.750;2024-03-08T04:28:40;0.60;;;0.60;;
60292;SDS011;52402;52.670;6.750;2024-03-08T04:31:06;0.70;;;0.70;;
60292;SDS011;52402;52.670;6.750;2024-03-08T04:33:32;0.52;;;0.52;;
60292;SDS011;52402;52.670;6.750;2024-03-08T04:36:00;0.60;;;0.60;;
60292;SDS011;52402;52.670;6.750;2024-03-08T04:38:26;0.60;;;0.60;;
60292;SDS011;52402;52.670;6.750;2024-03-08T04:40:52;0.60;;;0.60;;
60292;SDS011;52402;52.670;6.750;2024-03-08T04:43:18;0.65;;;0.65;;
60292;SDS011;52402;52.670;6.750;2024-03-08T04:45:44;0.63;;;0.63;;
60292;SDS011;52402;52.670;6.750;2024-03-08T04:48:10;0.70;;;0.70;;
60292;SDS011;52402;52.670;6.750;2024-03-08T04:50:36;0.60;;;0.60;;
60292;SDS011;52402;52.670;6.750;2024-03-08T04:53:03;0.60;;;0.60;;
60292;SDS011;52402;52.670;6.750;2024-03-08T04:55:29;0.50;;;0.50;;
60292;SDS011;52402;52.670;6.750;2024-03-08T04:57:55;0.50;;;0.50;;
60292;SDS011;52402;52.670;6.750;2024-03-08T05:00:20;0.63;;;0.63;;
60292;SDS011;52402;52.670;6.750;2024-03-08T05:02:46;0.60;;;0.60;;
60292;SDS011;52402;52.670;6.750;2024-03-08T05:05:11;0.70;;;0.70;;
60292;SDS011;52402;52.670;6.750;2024-03-08T05:07:38;0.50;;;0.50;;
60292;SDS011;52402;52.670;6.750;2024-03-08T05:10:05;0.60;;;0.60;;
60292;SDS011;52402;52.670;6.750;2024-03-08T05:12:31;0.65;;;0.65;;
60292;SDS011;52402;52.670;6.750;2024-03-08T05:14:58;0.50;;;0.50;;
60292;SDS011;52402;52.670;6.750;2024-03-08T05:17:23;0.70;;;0.70;;
60292;SDS011;52402;52.670;6.750;2024-03-08T05:19:49;0.60;;;0.60;;
60292;SDS011;52402;52.670;6.750;2024-03-08T05:22:16;0.52;;;0.52;;
60292;SDS011;52402;52.670;6.750;2024-03-08T05:24:42;0.60;;;0.60;;
60292;SDS011;52402;52.670;6.750;2024-03-08T05:27:08;0.68;;;0.68;;
60292;SDS011;52402;52.670;6.750;2024-03-08T05:29:33;0.70;;;0.70;;
60292;SDS011;52402;52.670;6.750;2024-03-08T05:31:59;0.60;;;0.60;;
60292;SDS011;52402;52.670;6.750;2024-03-08T05:34:25;0.65;;;0.65;;
60292;SDS011;52402;52.670;6.750;2024-03-08T05:36:53;0.60;;;0.60;;
60292;SDS011;52402;52.670;6.750;2024-03-08T05:39:19;0.57;;;0.57;;
60292;SDS011;52402;52.670;6.750;2024-03-08T05:41:45;0.63;;;0.63;;
60292;SDS011;52402;52.670;6.750;2024-03-08T05:44:11;0.57;;;0.57;;
60292;SDS011;52402;52.670;6.750;2024-03-08T05:46:38;0.65;;;0.65;;
60292;SDS011;52402;52.670;6.750;2024-03-08T05:49:04;0.60;;;0.60;;
60292;SDS011;52402;52.670;6.750;2024-03-08T05:51:31;0.63;;;0.63;;
60292;SDS011;52402;52.670;6.750;2024-03-08T05:53:59;0.60;;;0.60;;
60292;SDS011;52402;52.670;6.750;2024-03-08T05:56:31;0.60;;;0.60;;
60292;SDS011;52402;52.670;6.750;2024-03-08T05:58:57;0.70;;;0.70;;
60292;SDS011;52402;52.670;6.750;2024-03-08T06:01:24;0.43;;;0.43;;
60292;SDS011;52402;52.670;6.750;2024-03-08T06:03:50;0.55;;;0.55;;
60292;SDS011;52402;52.670;6.750;2024-03-08T06:06:15;0.60;;;0.60;;
60292;SDS011;52402;52.670;6.750;2024-03-08T06:08:43;0.60;;;0.60;;
60292;SDS011;52402;52.670;6.750;2024-03-08T06:11:09;0.60;;;0.60;;
60292;SDS011;52402;52.670;6.750;2024-03-08T06:13:35;0.47;;;0.47;;
60292;SDS011;52402;52.670;6.750;2024-03-08T06:16:01;0.60;;;0.60;;
60292;SDS011;52402;52.670;6.750;2024-03-08T06:18:30;0.45;;;0.45;;
60292;SDS011;52402;52.670;6.750;2024-03-08T06:20:56;0.50;;;0.50;;
60292;SDS011;52402;52.670;6.750;2024-03-08T06:23:22;0.40;;;0.40;;
60292;SDS011;52402;52.670;6.750;2024-03-08T06:25:48;0.50;;;0.50;;
60292;SDS011;52402;52.670;6.750;2024-03-08T06:28:14;0.60;;;0.60;;
60292;SDS011;52402;52.670;6.750;2024-03-08T06:30:40;0.50;;;0.50;;
60292;SDS011;52402;52.670;6.750;2024-03-08T06:33:05;0.60;;;0.60;;
60292;SDS011;52402;52.670;6.750;2024-03-08T06:35:32;0.50;;;0.50;;
60292;SDS011;52402;52.670;6.750;2024-03-08T06:38:00;0.45;;;0.45;;
60292;SDS011;52402;52.670;6.750;2024-03-08T06:40:26;0.50;;;0.50;;
60292;SDS011;52402;52.670;6.750;2024-03-08T06:42:51;0.40;;;0.40;;
60292;SDS011;52402;52.670;6.750;2024-03-08T06:45:17;0.50;;;0.50;;
60292;SDS011;52402;52.670;6.750;2024-03-08T06:47:46;0.60;;;0.60;;
60292;SDS011;52402;52.670;6.750;2024-03-08T06:50:12;0.50;;;0.50;;
60292;SDS011;52402;52.670;6.750;2024-03-08T06:52:37;0.50;;;0.50;;
60292;SDS011;52402;52.670;6.750;2024-03-08T06:55:04;0.50;;;0.50;;
60292;SDS011;52402;52.670;6.750;2024-03-08T06:57:30;0.50;;;0.50;;
60292;SDS011;52402;52.670;6.750;2024-03-08T06:59:56;0.50;;;0.50;;
60292;SDS011;52402;52.670;6.750;2024-03-08T07:02:22;0.55;;;0.55;;
60292;SDS011;52402;52.670;6.750;2024-03-08T07:04:51;0.43;;;0.43;;
60292;SDS011;52402;52.670;6.750;2024-03-08T07:07:18;0.50;;;0.50;;
60292;SDS011;52402;52.670;6.750;2024-03-08T07:09:45;0.52;;;0.52;;
60292;SDS011;52402;52.670;6.750;2024-03-08T07:12:11;0.50;;;0.50;;
60292;SDS011;52402;52.670;6.750;2024-03-08T07:14:38;0.52;;;0.52;;
60292;SDS011;52402;52.670;6.750;2024-03-08T07:17:06;0.50;;;0.50;;
60292;SDS011;52402;52.670;6.750;2024-03-08T07:19:34;0.60;;;0.60;;
60292;SDS011;52402;52.670;6.750;2024-03-08T07:22:00;0.57;;;0.57;;
60292;SDS011;52402;52.670;6.750;2024-03-08T07:24:25;0.50;;;0.50;;
60292;SDS011;52402;52.670;6.750;2024-03-08T07:27:09;0.52;;;0.52;;
60292;SDS011;52402;52.670;6.750;2024-03-08T07:29:35;0.50;;;0.50;;
60292;SDS011;52402;52.670;6.750;2024-03-08T07:32:01;0.60;;;0.60;;
60292;SDS011;52402;52.670;6.750;2024-03-08T07:34:45;0.50;;;0.50;;
60292;SDS011;52402;52.670;6.750;2024-03-08T07:37:10;0.50;;;0.50;;
60292;SDS011;52402;52.670;6.750;2024-03-08T07:39:37;0.50;;;0.50;;
60292;SDS011;52402;52.670;6.750;2024-03-08T07:42:04;0.50;;;0.50;;
60292;SDS011;52402;52.670;6.750;2024-03-08T07:44:29;0.50;;;0.50;;
60292;SDS011;52402;52.670;6.750;2024-03-08T07:46:56;0.50;;;0.50;;
60292;SDS011;52402;52.670;6.750;2024-03-08T07:49:22;0.60;;;0.60;;
60292;SDS011;52402;52.670;6.750;2024-03-08T07:51:48;0.57;;;0.57;;
60292;SDS011;52402;52.670;6.750;2024-03-08T07:54:14;0.50;;;0.50;;
60292;SDS011;52402;52.670;6.750;2024-03-08T07:56:53;0.40;;;0.40;;
60292;SDS011;52402;52.670;6.750;2024-03-08T07:59:52;0.50;;;0.50;;
60292;SDS011;52402;52.670;6.750;2024-03-08T08:02:34;0.40;;;0.40;;
60292;SDS011;52402;52.670;6.750;2024-03-08T08:05:01;0.50;;;0.50;;
60292;SDS011;52402;52.670;6.750;2024-03-08T08:07:26;0.50;;;0.50;;
60292;SDS011;52402;52.670;6.750;2024-03-08T08:09:52;0.45;;;0.45;;
60292;SDS011;52402;52.670;6.750;2024-03-08T08:12:18;0.50;;;0.50;;
60292;SDS011;52402;52.670;6.750;2024-03-08T08:14:44;0.55;;;0.55;;
60292;SDS011;52402;52.670;6.750;2024-03-08T08:17:10;0.40;;;0.40;;
60292;SDS011;52402;52.670;6.750;2024-03-08T08:19:37;0.60;;;0.60;;
60292;SDS011;52402;52.670;6.750;2024-03-08T08:22:03;0.40;;;0.40;;
60292;SDS011;52402;52.670;6.750;2024-03-08T08:24:29;0.45;;;0.45;;
60292;SDS011;52402;52.670;6.750;2024-03-08T08:26:55;0.60;;;0.60;;
60292;SDS011;52402;52.670;6.750;2024-03-08T08:29:20;0.60;;;0.60;;
60292;SDS011;52402;52.670;6.750;2024-03-08T08:31:47;0.60;;;0.60;;
60292;SDS011;52402;52.670;6.750;2024-03-08T08:34:15;0.50;;;0.50;;
60292;SDS011;52402;52.670;6.750;2024-03-08T08:36:49;0.50;;;0.50;;
60292;SDS011;52402;52.670;6.750;2024-03-08T08:39:14;0.57;;;0.57;;
60292;SDS011;52402;52.670;6.750;2024-03-08T08:41:42;0.47;;;0.47;;
60292;SDS011;52402;52.670;6.750;2024-03-08T08:44:10;0.60;;;0.60;;
60292;SDS011;52402;52.670;6.750;2024-03-08T08:46:37;0.60;;;0.60;;
60292;SDS011;52402;52.670;6.750;2024-03-08T08:49:03;0.63;;;0.63;;
60292;SDS011;52402;52.670;6.750;2024-03-08T08:51:30;0.60;;;0.60;;
60292;SDS011;52402;52.670;6.750;2024-03-08T08:53:58;0.60;;;0.60;;
60292;SDS011;52402;52.670;6.750;2024-03-08T08:56:24;0.60;;;0.60;;
60292;SDS011;52402;52.670;6.750;2024-03-08T08:58:51;0.60;;;0.60;;
60292;SDS011;52402;52.670;6.750;2024-03-08T09:01:18;0.68;;;0.68;;
60292;SDS011;52402;52.670;6.750;2024-03-08T09:03:44;0.60;;;0.60;;
60292;SDS011;52402;52.670;6.750;2024-03-08T09:06:12;0.50;;;0.50;;
60292;SDS011;52402;52.670;6.750;2024-03-08T09:08:41;0.50;;;0.50;;
60292;SDS011;52402;52.670;6.750;2024-03-08T09:11:07;0.60;;;0.60;;
60292;SDS011;52402;52.670;6.750;2024-03-08T09:13:37;0.60;;;0.60;;
60292;SDS011;52402;52.670;6.750;2024-03-08T09:16:03;0.60;;;0.60;;
60292;SDS011;52402;52.670;6.750;2024-03-08T09:18:30;0.70;;;0.70;;
60292;SDS011;52402;52.670;6.750;2024-03-08T09:20:57;0.60;;;0.60;;
60292;SDS011;52402;52.670;6.750;2024-03-08T09:23:24;0.60;;;0.60;;
60292;SDS011;52402;52.670;6.750;2024-03-08T09:25:55;0.70;;;0.70;;
60292;SDS011;52402;52.670;6.750;2024-03-08T09:28:24;0.70;;;0.70;;
60292;SDS011;52402;52.670;6.750;2024-03-08T09:30:50;0.60;;;0.60;;
60292;SDS011;52402;52.670;6.750;2024-03-08T09:33:15;0.60;;;0.60;;
60292;SDS011;52402;52.670;6.750;2024-03-08T09:35:44;0.60;;;0.60;;
60292;SDS011;52402;52.670;6.750;2024-03-08T09:38:12;0.60;;;0.60;;
60292;SDS011;52402;52.670;6.750;2024-03-08T09:40:38;0.55;;;0.55;;
60292;SDS011;52402;52.670;6.750;2024-03-08T09:43:06;0.50;;;0.50;;
60292;SDS011;52402;52.670;6.750;2024-03-08T09:45:32;0.63;;;0.63;;
60292;SDS011;52402;52.670;6.750;2024-03-08T09:48:08;0.60;;;0.60;;
60292;SDS011;52402;52.670;6.750;2024-03-08T09:50:39;0.60;;;0.60;;
60292;SDS011;52402;52.670;6.750;2024-03-08T09:53:06;0.70;;;0.70;;
60292;SDS011;52402;52.670;6.750;2024-03-08T09:55:36;0.60;;;0.60;;
60292;SDS011;52402;52.670;6.750;2024-03-08T09:58:05;0.70;;;0.70;;
60292;SDS011;52402;52.670;6.750;2024-03-08T10:00:50;0.70;;;0.70;;
60292;SDS011;52402;52.670;6.750;2024-03-08T10:03:16;0.70;;;0.70;;
60292;SDS011;52402;52.670;6.750;2024-03-08T10:05:41;0.70;;;0.70;;
60292;SDS011;52402;52.670;6.750;2024-03-08T10:08:08;0.68;;;0.68;;
60292;SDS011;52402;52.670;6.750;2024-03-08T10:10:34;0.60;;;0.60;;
60292;SDS011;52402;52.670;6.750;2024-03-08T10:13:00;0.70;;;0.70;;
60292;SDS011;52402;52.670;6.750;2024-03-08T10:15:29;0.60;;;0.60;;
60292;SDS011;52402;52.670;6.750;2024-03-08T10:17:57;0.85;;;0.85;;
60292;SDS011;52402;52.670;6.750;2024-03-08T10:20:23;0.70;;;0.70;;
60292;SDS011;52402;52.670;6.750;2024-03-08T10:22:49;0.68;;;0.68;;
60292;SDS011;52402;52.670;6.750;2024-03-08T10:25:14;0.63;;;0.63;;
60292;SDS011;52402;52.670;6.750;2024-03-08T10:27:40;0.70;;;0.70;;
60292;SDS011;52402;52.670;6.750;2024-03-08T10:30:10;0.80;;;0.80;;
60292;SDS011;52402;52.670;6.750;2024-03-08T10:32:39;0.70;;;0.70;;
60292;SDS011;52402;52.670;6.750;2024-03-08T10:35:06;0.70;;;0.70;;
60292;SDS011;52402;52.670;6.750;2024-03-08T10:37:33;0.80;;;0.80;;
60292;SDS011;52402;52.670;6.750;2024-03-08T10:40:09;0.80;;;0.80;;
60292;SDS011;52402;52.670;6.750;2024-03-08T10:42:41;0.80;;;0.80;;
60292;SDS011;52402;52.670;6.750;2024-03-08T10:45:23;0.80;;;0.80;;
60292;SDS011;52402;52.670;6.750;2024-03-08T10:48:04;0.73;;;0.73;;
60292;SDS011;52402;52.670;6.750;2024-03-08T10:50:35;0.90;;;0.90;;
60292;SDS011;52402;52.670;6.750;2024-03-08T10:53:02;0.90;;;0.90;;
60292;SDS011;52402;52.670;6.750;2024-03-08T10:55:34;0.80;;;0.80;;
60292;SDS011;52402;52.670;6.750;2024-03-08T10:58:04;0.80;;;0.80;;
60292;SDS011;52402;52.670;6.750;2024-03-08T11:00:31;0.80;;;0.80;;
60292;SDS011;52402;52.670;6.750;2024-03-08T11:02:57;0.90;;;0.90;;
60292;SDS011;52402;52.670;6.750;2024-03-08T11:05:41;0.90;;;0.90;;
60292;SDS011;52402;52.670;6.750;2024-03-08T11:08:19;0.70;;;0.70;;
60292;SDS011;52402;52.670;6.750;2024-03-08T11:13:36;0.82;;;0.82;;
60292;SDS011;52402;52.670;6.750;2024-03-08T11:16:36;0.73;;;0.73;;
60292;SDS011;52402;52.670;6.750;2024-03-08T11:18:58;0.70;;;0.70;;
60292;SDS011;52402;52.670;6.750;2024-03-08T11:21:34;0.90;;;0.90;;
60292;SDS011;52402;52.670;6.750;2024-03-08T11:26:37;1.00;;;1.00;;
60292;SDS011;52402;52.670;6.750;2024-03-08T11:32:06;0.90;;;0.90;;
60292;SDS011;52402;52.670;6.750;2024-03-08T11:34:32;0.77;;;0.77;;
60292;SDS011;52402;52.670;6.750;2024-03-08T11:37:03;1.00;;;1.00;;
60292;SDS011;52402;52.670;6.750;2024-03-08T11:39:29;0.90;;;0.90;;
60292;SDS011;52402;52.670;6.750;2024-03-08T11:41:55;0.98;;;0.98;;
60292;SDS011;52402;52.670;6.750;2024-03-08T11:44:21;0.90;;;0.90;;
60292;SDS011;52402;52.670;6.750;2024-03-08T11:46:52;0.95;;;0.95;;
60292;SDS011;52402;52.670;6.750;2024-03-08T11:49:19;0.90;;;0.90;;
60292;SDS011;52402;52.670;6.750;2024-03-08T11:51:44;0.98;;;0.98;;
60292;SDS011;52402;52.670;6.750;2024-03-08T11:54:11;1.00;;;1.00;;
60292;SDS011;52402;52.670;6.750;2024-03-08T11:56:45;0.98;;;0.98;;
60292;SDS011;52402;52.670;6.750;2024-03-08T11:59:15;0.80;;;0.80;;
60292;SDS011;52402;52.670;6.750;2024-03-08T12:01:57;0.95;;;0.95;;
60292;SDS011;52402;52.670;6.750;2024-03-08T12:04:30;1.00;;;1.00;;
60292;SDS011;52402;52.670;6.750;2024-03-08T12:06:59;1.00;;;1.00;;
60292;SDS011;52402;52.670;6.750;2024-03-08T12:09:34;1.15;;;1.15;;
60292;SDS011;52402;52.670;6.750;2024-03-08T12:12:01;1.10;;;1.10;;
60292;SDS011;52402;52.670;6.750;2024-03-08T12:14:29;1.10;;;1.10;;
60292;SDS011;52402;52.670;6.750;2024-03-08T12:16:57;1.10;;;1.10;;
60292;SDS011;52402;52.670;6.750;2024-03-08T12:21:53;1.05;;;1.05;;
60292;SDS011;52402;52.670;6.750;2024-03-08T12:24:19;1.33;;;1.23;;
60292;SDS011;52402;52.670;6.750;2024-03-08T12:26:46;1.40;;;1.30;;
60292;SDS011;52402;52.670;6.750;2024-03-08T12:29:17;1.10;;;1.10;;
60292;SDS011;52402;52.670;6.750;2024-03-08T12:31:53;1.10;;;1.10;;
60292;SDS011;52402;52.670;6.750;2024-03-08T12:34:22;1.40;;;1.30;;
60292;SDS011;52402;52.670;6.750;2024-03-08T12:36:48;1.30;;;1.25;;
60292;SDS011;52402;52.670;6.750;2024-03-08T12:39:20;1.20;;;1.20;;
60292;SDS011;52402;52.670;6.750;2024-03-08T12:41:48;1.00;;;1.00;;
60292;SDS011;52402;52.670;6.750;2024-03-08T12:44:17;1.20;;;1.20;;
60292;SDS011;52402;52.670;6.750;2024-03-08T12:46:50;1.10;;;1.10;;
60292;SDS011;52402;52.670;6.750;2024-03-08T12:49:16;1.48;;;1.38;;
60292;SDS011;52402;52.670;6.750;2024-03-08T12:51:45;1.40;;;1.30;;
60292;SDS011;52402;52.670;6.750;2024-03-08T12:54:11;1.20;;;1.20;;
60292;SDS011;52402;52.670;6.750;2024-03-08T12:56:37;1.63;;;1.52;;
60292;SDS011;52402;52.670;6.750;2024-03-08T12:59:05;1.50;;;1.40;;
60292;SDS011;52402;52.670;6.750;2024-03-08T13:01:33;1.40;;;1.30;;
60292;SDS011;52402;52.670;6.750;2024-03-08T13:04:01;1.52;;;1.42;;
60292;SDS011;52402;52.670;6.750;2024-03-08T13:06:28;1.60;;;1.50;;
60292;SDS011;52402;52.670;6.750;2024-03-08T13:08:56;1.67;;;1.58;;
60292;SDS011;52402;52.670;6.750;2024-03-08T13:11:23;1.52;;;1.42;;
60292;SDS011;52402;52.670;6.750;2024-03-08T13:13:53;1.73;;;1.63;;
60292;SDS011;52402;52.670;6.750;2024-03-08T13:16:22;1.67;;;1.58;;
60292;SDS011;52402;52.670;6.750;2024-03-08T13:18:48;1.70;;;1.60;;
60292;SDS011;52402;52.670;6.750;2024-03-08T13:21:14;1.80;;;1.70;;
60292;SDS011;52402;52.670;6.750;2024-03-08T13:23:41;1.50;;;1.40;;
60292;SDS011;52402;52.670;6.750;2024-03-08T13:26:11;1.70;;;1.60;;
60292;SDS011;52402;52.670;6.750;2024-03-08T13:28:41;1.90;;;1.80;;
60292;SDS011;52402;52.670;6.750;2024-03-08T13:31:07;1.70;;;1.60;;
60292;SDS011;52402;52.670;6.750;2024-03-08T13:33:35;1.70;;;1.60;;
60292;SDS011;52402;52.670;6.750;2024-03-08T13:36:07;1.83;;;1.73;;
60292;SDS011;52402;52.670;6.750;2024-03-08T13:38:42;1.77;;;1.67;;
60292;SDS011;52402;52.670;6.750;2024-03-08T13:41:09;1.70;;;1.60;;
60292;SDS011;52402;52.670;6.750;2024-03-08T13:43:37;1.70;;;1.60;;
60292;SDS011;52402;52.670;6.750;2024-03-08T13:46:03;1.90;;;1.80;;
60292;SDS011;52402;52.670;6.750;2024-03-08T13:48:32;1.90;;;1.80;;
60292;SDS011;52402;52.670;6.750;2024-03-08T13:50:58;1.80;;;1.70;;
60292;SDS011;52402;52.670;6.750;2024-03-08T13:53:27;1.95;;;1.85;;
60292;SDS011;52402;52.670;6.750;2024-03-08T13:55:53;1.90;;;1.80;;
60292;SDS011;52402;52.670;6.750;2024-03-08T13:58:19;1.80;;;1.70;;
60292;SDS011;52402;52.670;6.750;2024-03-08T14:00:49;1.70;;;1.60;;
60292;SDS011;52402;52.670;6.750;2024-03-08T14:03:25;1.77;;;1.67;;
60292;SDS011;52402;52.670;6.750;2024-03-08T14:05:51;1.70;;;1.60;;
60292;SDS011;52402;52.670;6.750;2024-03-08T14:08:18;1.77;;;1.67;;
60292;SDS011;52402;52.670;6.750;2024-03-08T14:10:43;1.70;;;1.60;;
60292;SDS011;52402;52.670;6.750;2024-03-08T14:13:12;1.55;;;1.45;;
60292;SDS011;52402;52.670;6.750;2024-03-08T14:15:40;1.60;;;1.50;;
60292;SDS011;52402;52.670;6.750;2024-03-08T14:18:07;1.90;;;1.80;;
60292;SDS011;52402;52.670;6.750;2024-03-08T14:20:33;1.60;;;1.50;;
60292;SDS011;52402;52.670;6.750;2024-03-08T14:22:58;1.50;;;1.40;;
60292;SDS011;52402;52.670;6.750;2024-03-08T14:25:27;1.70;;;1.60;;
60292;SDS011;52402;52.670;6.750;2024-03-08T14:28:04;1.70;;;1.60;;
60292;SDS011;52402;52.670;6.750;2024-03-08T14:30:32;1.60;;;1.50;;
60292;SDS011;52402;52.670;6.750;2024-03-08T14:33:03;1.60;;;1.50;;
60292;SDS011;52402;52.670;6.750;2024-03-08T14:35:36;1.80;;;1.70;;
60292;SDS011;52402;52.670;6.750;2024-03-08T14:38:08;1.75;;;1.65;;
60292;SDS011;52402;52.670;6.750;2024-03-08T14:40:37;1.63;;;1.52;;
60292;SDS011;52402;52.670;6.750;2024-03-08T14:43:09;1.90;;;1.80;;
60292;SDS011;52402;52.670;6.750;2024-03-08T14:45:38;1.52;;;1.42;;
60292;SDS011;52402;52.670;6.750;2024-03-08T14:48:04;1.63;;;1.52;;
60292;SDS011;52402;52.670;6.750;2024-03-08T14:50:29;1.85;;;1.75;;
60292;SDS011;52402;52.670;6.750;2024-03-08T14:52:58;1.67;;;1.58;;
60292;SDS011;52402;52.670;6.750;2024-03-08T14:55:25;1.52;;;1.42;;
60292;SDS011;52402;52.670;6.750;2024-03-08T14:57:51;1.70;;;1.60;;
60292;SDS011;52402;52.670;6.750;2024-03-08T15:00:20;1.50;;;1.40;;
60292;SDS011;52402;52.670;6.750;2024-03-08T15:03:02;1.40;;;1.30;;
60292;SDS011;52402;52.670;6.750;2024-03-08T15:05:40;1.40;;;1.30;;